Time;durP1;ratioP1;P1;durP2;ratioP2;P2;SDS_P1;SDS_P2;PMS_P1;PMS_P2;Temp;Humidity;BMP_temperature;BMP_pressure;BME280_temperature;BME280_humidity;BME280_pressure;Samples;Min_cycle;Max_cycle;Signal;HPM_P1;HPM_P2
2022/06/10 00:02:21;;;;;;;3.00;1.40;;;15.30;99.90;;;;;;5048410;28;20180;-79
2022/06/10 00:04:47;;;;;;;3.63;1.20;;;15.30;99.90;;;;;;5044909;28;20573;-80
2022/06/10 00:07:13;;;;;;;3.60;1.40;;;15.20;99.90;;;;;;5040385;28;20233;-82
2022/06/10 00:09:38;;;;;;;2.33;1.20;;;15.30;99.90;;;;;;5033294;28;20185;-80
2022/06/10 00:12:05;;;;;;;2.40;1.10;;;15.20;99.90;;;;;;5033840;28;20183;-88
2022/06/10 00:14:30;;;;;;;4.07;1.50;;;15.20;99.90;;;;;;5033511;28;20281;-85
2022/06/10 00:16:56;;;;;;;1.63;1.30;;;15.20;99.90;;;;;;5032935;28;20233;-88
2022/06/10 00:19:22;;;;;;;2.55;1.42;;;15.20;99.90;;;;;;5039055;28;20655;-88
2022/06/10 00:21:47;;;;;;;2.53;1.30;;;15.10;99.90;;;;;;5052958;28;20182;-89
2022/06/10 00:24:13;;;;;;;3.65;1.23;;;15.10;99.90;;;;;;5052733;28;20267;-87
2022/06/10 00:26:38;;;;;;;3.72;1.50;;;15.10;99.90;;;;;;5038294;28;20183;-81
2022/06/10 00:29:04;;;;;;;2.63;1.38;;;15.10;99.90;;;;;;5040741;28;20188;-83
2022/06/10 00:31:30;;;;;;;2.45;1.77;;;15.10;99.90;;;;;;5049100;28;20190;-80
2022/06/10 00:33:55;;;;;;;3.53;1.80;;;15.00;99.90;;;;;;5051844;28;20235;-80
2022/06/10 00:36:22;;;;;;;4.47;1.60;;;15.00;99.90;;;;;;5052545;28;20268;-83
2022/06/10 00:38:48;;;;;;;4.18;1.25;;;14.90;99.90;;;;;;5047290;28;20264;-80
2022/06/10 00:41:15;;;;;;;2.00;1.65;;;14.90;99.90;;;;;;5056693;28;20272;-82
2022/06/10 00:43:41;;;;;;;3.58;1.42;;;14.80;99.90;;;;;;5056728;28;20205;-81
2022/06/10 00:46:24;;;;;;;3.58;1.50;;;14.80;99.90;;;;;;5056961;28;20186;-80
2022/06/10 00:49:00;;;;;;;1.95;1.40;;;14.70;99.90;;;;;;5054547;28;20188;-85
2022/06/10 00:51:48;;;;;;;2.45;1.48;;;14.70;99.90;;;;;;5056903;28;20647;-82
2022/06/10 00:54:37;;;;;;;2.75;1.40;;;14.70;99.90;;;;;;5045626;28;20209;-79
2022/06/10 00:57:21;;;;;;;2.72;1.55;;;14.70;99.90;;;;;;5038107;28;20194;-80
2022/06/10 01:00:08;;;;;;;1.90;1.35;;;14.60;99.90;;;;;;5037435;28;20210;-83
2022/06/10 01:02:35;;;;;;;2.85;1.30;;;14.60;99.90;;;;;;5040499;28;20505;-80
2022/06/10 01:05:04;;;;;;;2.17;1.48;;;14.50;99.90;;;;;;5034957;28;20274;-79
2022/06/10 01:07:35;;;;;;;3.47;1.70;;;14.50;99.90;;;;;;5036515;28;20273;-80
2022/06/10 01:10:04;;;;;;;2.53;1.40;;;14.50;99.90;;;;;;5036750;28;20178;-81
2022/06/10 01:12:57;;;;;;;2.33;1.63;;;14.50;99.90;;;;;;5036956;28;20186;-79
2022/06/10 01:15:48;;;;;;;2.22;1.48;;;14.50;99.90;;;;;;5036929;28;20186;-81
2022/06/10 01:18:32;;;;;;;6.10;1.98;;;14.40;99.90;;;;;;5044809;28;20243;-82
2022/06/10 01:21:07;;;;;;;1.88;1.45;;;14.40;99.90;;;;;;5046047;28;20577;-80
2022/06/10 01:23:54;;;;;;;2.78;1.42;;;14.50;99.90;;;;;;5043736;28;20200;-81
2022/06/10 01:26:32;;;;;;;4.63;1.60;;;14.40;99.90;;;;;;5036335;28;20208;-79
2022/06/10 01:29:14;;;;;;;4.45;2.00;;;14.40;99.90;;;;;;5036350;28;20497;-86
2022/06/10 01:32:02;;;;;;;6.40;1.80;;;14.40;99.90;;;;;;5042933;28;20517;-87
2022/06/10 01:34:50;;;;;;;2.40;1.48;;;14.30;99.90;;;;;;5035593;28;20183;-85
2022/06/10 01:37:23;;;;;;;4.38;1.58;;;14.20;99.90;;;;;;5035738;28;20186;-88
2022/06/10 01:40:21;;;;;;;3.05;1.70;;;14.30;99.90;;;;;;5038876;28;20208;-87
2022/06/10 01:43:26;;;;;;;2.10;1.40;;;14.30;99.90;;;;;;5033703;28;20206;-87
2022/06/10 01:46:06;;;;;;;2.95;1.42;;;14.20;99.90;;;;;;5015029;28;20194;-80
2022/06/10 01:48:50;;;;;;;3.25;1.50;;;14.20;99.90;;;;;;5035240;28;20248;-80
2022/06/10 01:51:22;;;;;;;2.25;1.50;;;14.10;99.90;;;;;;5034036;28;20214;-82
2022/06/10 01:53:58;;;;;;;3.47;1.67;;;14.10;99.90;;;;;;5035995;28;20253;-84
2022/06/10 01:56:34;;;;;;;3.40;1.58;;;14.10;99.90;;;;;;5035892;28;20182;-80
2022/06/10 01:59:19;;;;;;;6.22;1.88;;;14.00;99.90;;;;;;5035202;28;20488;-79
2022/06/10 02:02:19;;;;;;;4.78;1.60;;;14.00;99.90;;;;;;5035806;28;20201;-79
2022/06/10 02:05:12;;;;;;;2.70;1.80;;;14.00;99.90;;;;;;5049563;28;20632;-80
2022/06/10 02:07:43;;;;;;;1.67;1.50;;;13.90;99.90;;;;;;5052336;28;20627;-85
2022/06/10 02:10:13;;;;;;;3.60;1.70;;;13.90;99.90;;;;;;5039304;28;20209;-86
2022/06/10 02:12:49;;;;;;;5.40;1.73;;;13.90;99.90;;;;;;5055078;28;20655;-86
2022/06/10 02:15:22;;;;;;;4.82;1.85;;;13.90;99.90;;;;;;5054359;28;20188;-86
2022/06/10 02:17:56;;;;;;;3.67;1.83;;;13.90;99.90;;;;;;5039869;28;20225;-86
2022/06/10 02:20:25;;;;;;;3.95;1.70;;;13.80;99.90;;;;;;5035552;28;20293;-87
2022/06/10 02:22:56;;;;;;;4.60;1.67;;;13.70;99.90;;;;;;5035296;28;20615;-81
2022/06/10 02:28:19;;;;;;;7.70;2.00;;;13.70;99.90;;;;;;5378606;23;20266;-84
2022/06/10 02:31:05;;;;;;;4.57;1.90;;;13.70;99.90;;;;;;5039833;28;20640;-87
2022/06/10 02:33:31;;;;;;;1.98;1.80;;;13.70;99.90;;;;;;5028452;28;20226;-87
2022/06/10 02:36:18;;;;;;;6.55;1.60;;;13.60;99.90;;;;;;5034611;28;20186;-86
2022/06/10 02:39:08;;;;;;;2.25;1.50;;;13.60;99.90;;;;;;5033181;28;20194;-87
2022/06/10 02:42:07;;;;;;;3.60;1.80;;;13.60;99.90;;;;;;5033843;28;20261;-87
2022/06/10 02:45:16;;;;;;;3.08;1.90;;;13.60;99.90;;;;;;5034640;28;20564;-80
2022/06/10 02:47:46;;;;;;;3.97;2.30;;;13.50;99.90;;;;;;5032993;28;20244;-80
2022/06/10 02:50:13;;;;;;;3.70;2.00;;;13.50;99.90;;;;;;5034721;28;20175;-80
2022/06/10 02:52:40;;;;;;;4.18;1.80;;;13.50;99.90;;;;;;5034640;28;20275;-80
2022/06/10 02:55:13;;;;;;;4.57;1.98;;;13.50;99.90;;;;;;5034408;28;20201;-80
2022/06/10 03:03:30;;;;;;;3.63;2.00;;;13.50;99.90;;;;;;5032656;28;20605;-80
2022/06/10 03:06:01;;;;;;;4.95;1.90;;;13.40;99.90;;;;;;5034276;28;20182;-81
2022/06/10 03:08:33;;;;;;;6.80;2.10;;;13.40;99.90;;;;;;5033570;28;20186;-80
2022/06/10 03:11:28;;;;;;;9.00;1.67;;;13.40;99.90;;;;;;5033125;28;20191;-82
2022/06/10 03:14:20;;;;;;;2.83;2.22;;;13.40;99.90;;;;;;5050350;28;20205;-85
2022/06/10 03:17:00;;;;;;;5.32;2.25;;;13.40;99.90;;;;;;5034310;28;20193;-87
2022/06/10 03:19:30;;;;;;;3.38;2.53;;;13.30;99.90;;;;;;5034321;28;20210;-87
2022/06/10 03:22:14;;;;;;;4.78;2.47;;;13.40;99.90;;;;;;5034680;28;20198;-87
2022/06/10 03:25:02;;;;;;;3.42;2.10;;;13.30;99.90;;;;;;5044831;28;20188;-87
2022/06/10 03:27:31;;;;;;;5.97;2.25;;;13.30;99.90;;;;;;5051719;28;20225;-88
2022/06/10 03:30:07;;;;;;;6.63;2.50;;;13.30;99.90;;;;;;5052293;28;20201;-87
2022/06/10 03:32:38;;;;;;;7.28;2.20;;;13.30;99.90;;;;;;5044558;28;20234;-85
2022/06/10 03:35:18;;;;;;;3.33;2.10;;;13.20;99.90;;;;;;5050964;28;20209;-86
2022/06/10 03:37:45;;;;;;;5.30;2.30;;;13.30;99.90;;;;;;5033415;28;20339;-86
2022/06/10 03:40:24;;;;;;;6.65;2.53;;;13.30;99.90;;;;;;5032974;28;20206;-87
2022/06/10 03:42:55;;;;;;;4.50;2.25;;;13.30;99.90;;;;;;5031645;28;20303;-85
2022/06/10 03:45:24;;;;;;;3.70;2.17;;;13.30;99.90;;;;;;5053260;28;20178;-86
2022/06/10 03:47:50;;;;;;;4.28;2.47;;;13.40;99.90;;;;;;5052715;28;20519;-87
2022/06/10 03:50:22;;;;;;;4.82;2.55;;;13.30;99.90;;;;;;5053087;28;20180;-87
2022/06/10 03:52:47;;;;;;;5.45;2.15;;;13.40;99.90;;;;;;5053307;28;20211;-86
2022/06/10 03:55:18;;;;;;;2.97;2.40;;;13.40;99.90;;;;;;5051886;28;20192;-86
2022/06/10 03:57:45;;;;;;;3.72;2.28;;;13.40;99.90;;;;;;5053407;28;20186;-82
2022/06/10 04:00:23;;;;;;;4.78;2.50;;;13.50;99.90;;;;;;5049758;28;20329;-81
2022/06/10 04:02:50;;;;;;;4.78;2.47;;;13.50;99.90;;;;;;5040651;28;20518;-86
2022/06/10 04:05:16;;;;;;;6.45;3.00;;;13.60;99.90;;;;;;5051673;28;20182;-82
2022/06/10 04:07:42;;;;;;;4.32;2.60;;;13.60;99.90;;;;;;5052119;28;20276;-83
2022/06/10 04:10:12;;;;;;;4.68;2.38;;;13.60;99.90;;;;;;5052924;28;20192;-81
2022/06/10 04:12:38;;;;;;;7.20;3.17;;;13.50;99.90;;;;;;5033529;28;20244;-82
2022/06/10 04:15:05;;;;;;;8.60;2.90;;;13.50;99.90;;;;;;5032201;28;20183;-88
2022/06/10 04:17:31;;;;;;;5.05;2.95;;;13.50;99.90;;;;;;5032069;28;20703;-86
2022/06/10 04:19:59;;;;;;;8.85;3.33;;;13.60;99.90;;;;;;5040796;28;20324;-87
2022/06/10 04:22:25;;;;;;;5.03;2.55;;;13.50;99.90;;;;;;5051399;28;20208;-87
2022/06/10 04:24:51;;;;;;;6.30;2.90;;;13.50;99.90;;;;;;5049349;28;20789;-85
2022/06/10 04:27:17;;;;;;;6.60;2.60;;;13.60;99.90;;;;;;5033047;28;20234;-88
2022/06/10 04:29:42;;;;;;;3.95;2.63;;;13.50;99.90;;;;;;5038957;28;20200;-88
2022/06/10 04:32:08;;;;;;;8.60;3.38;;;13.60;99.90;;;;;;5039629;28;20186;-85
2022/06/10 04:34:36;;;;;;;9.10;3.17;;;13.60;99.90;;;;;;5042811;28;20189;-87
2022/06/10 04:37:03;;;;;;;7.55;3.00;;;13.70;99.90;;;;;;5032933;28;20201;-87
2022/06/10 04:39:28;;;;;;;6.57;3.22;;;13.80;99.90;;;;;;5046406;28;20296;-86
2022/06/10 04:41:54;;;;;;;8.80;3.60;;;13.90;99.90;;;;;;5036784;28;20221;-84
2022/06/10 04:44:19;;;;;;;6.00;3.13;;;14.00;99.90;;;;;;5045390;28;20617;-84
2022/06/10 04:46:45;;;;;;;8.07;2.95;;;14.20;99.90;;;;;;5039238;28;20617;-88
2022/06/10 04:49:11;;;;;;;6.15;2.80;;;14.20;99.90;;;;;;5033024;28;20183;-81
2022/06/10 04:51:37;;;;;;;4.88;2.83;;;14.30;99.90;;;;;;5041742;28;20182;-81
2022/06/10 04:54:04;;;;;;;11.77;3.33;;;14.50;99.90;;;;;;5033288;28;20186;-84
2022/06/10 04:56:31;;;;;;;5.32;2.80;;;14.50;99.90;;;;;;5033243;28;20221;-88
2022/06/10 04:58:57;;;;;;;7.72;3.38;;;14.60;99.90;;;;;;5041970;28;20205;-90
2022/06/10 05:01:22;;;;;;;6.65;3.00;;;14.60;99.90;;;;;;5033563;28;20174;-89
2022/06/10 05:03:48;;;;;;;5.50;2.90;;;14.70;99.90;;;;;;5031631;28;20574;-87
2022/06/10 05:06:14;;;;;;;7.47;2.80;;;14.70;99.90;;;;;;5032950;28;20185;-87
2022/06/10 05:08:40;;;;;;;6.50;3.28;;;14.70;99.90;;;;;;5048047;28;20217;-88
2022/06/10 05:11:07;;;;;;;6.57;3.20;;;14.80;99.90;;;;;;5037933;28;20214;-91
2022/06/10 05:13:33;;;;;;;8.05;3.53;;;14.80;99.90;;;;;;5033484;28;20171;-87
2022/06/10 05:15:59;;;;;;;9.60;3.15;;;14.90;99.90;;;;;;5051036;28;20182;-90
2022/06/10 05:18:24;;;;;;;5.90;2.58;;;14.90;99.90;;;;;;5046285;28;20190;-90
2022/06/10 05:20:51;;;;;;;6.75;2.83;;;14.90;99.90;;;;;;5036515;28;20213;-90
2022/06/10 05:23:19;;;;;;;5.68;2.85;;;15.00;99.90;;;;;;5031766;28;20262;-90
2022/06/10 05:25:45;;;;;;;5.47;2.95;;;15.00;99.90;;;;;;5033048;28;20200;-83
2022/06/10 05:28:13;;;;;;;6.72;2.90;;;15.00;99.90;;;;;;5043998;28;20233;-91
2022/06/10 05:30:39;;;;;;;5.10;2.72;;;15.10;99.90;;;;;;5036780;28;20171;-85
2022/06/10 05:33:07;;;;;;;5.63;2.92;;;15.10;99.90;;;;;;5044227;28;20190;-92
2022/06/10 05:35:33;;;;;;;6.25;2.83;;;15.20;99.90;;;;;;5037149;28;20178;-94
2022/06/10 05:38:00;;;;;;;5.55;2.65;;;15.20;99.90;;;;;;5035597;28;20171;-93
2022/06/10 05:40:28;;;;;;;4.95;2.90;;;15.30;99.90;;;;;;5032756;28;20252;-93
2022/06/10 05:42:54;;;;;;;8.05;3.42;;;15.30;99.90;;;;;;5036057;28;20216;-88
2022/06/10 05:45:21;;;;;;;3.60;2.60;;;15.40;99.90;;;;;;5036467;28;20301;-93
2022/06/10 05:47:51;;;;;;;5.45;2.95;;;15.40;99.90;;;;;;5035723;28;20304;-90
2022/06/10 05:50:29;;;;;;;4.45;2.58;;;15.50;99.90;;;;;;5036759;28;20205;-91
2022/06/10 05:52:55;;;;;;;6.85;2.83;;;15.50;99.90;;;;;;5036740;28;20261;-94
2022/06/10 05:55:22;;;;;;;6.40;3.13;;;15.60;99.90;;;;;;5036217;28;20297;-91
2022/06/10 05:57:50;;;;;;;8.18;2.80;;;15.60;99.90;;;;;;5036506;28;20301;-92
2022/06/10 06:00:24;;;;;;;6.78;3.22;;;15.70;99.90;;;;;;5018021;28;20206;-92
2022/06/10 06:02:50;;;;;;;9.02;2.70;;;15.70;99.90;;;;;;5056512;28;20162;-91
2022/06/10 06:05:16;;;;;;;5.82;2.60;;;15.80;99.90;;;;;;5056662;28;20184;-88
2022/06/10 06:07:43;;;;;;;8.45;3.03;;;15.80;99.90;;;;;;5056360;28;20173;-90
2022/06/10 06:10:13;;;;;;;6.90;2.53;;;15.80;99.90;;;;;;5056187;28;20265;-89
2022/06/10 06:12:39;;;;;;;4.70;3.10;;;15.80;99.90;;;;;;5056401;28;20170;-89
2022/06/10 06:15:05;;;;;;;8.02;3.13;;;15.80;99.90;;;;;;5056401;28;20627;-89
2022/06/10 06:17:31;;;;;;;5.57;3.33;;;16.00;99.90;;;;;;5051228;28;20605;-89
2022/06/10 06:19:57;;;;;;;7.03;2.60;;;16.00;99.90;;;;;;5035788;28;20298;-93
2022/06/10 06:22:22;;;;;;;5.68;2.20;;;16.00;99.90;;;;;;5036430;28;20174;-88
2022/06/10 06:24:48;;;;;;;8.93;2.25;;;16.10;99.90;;;;;;5035779;28;20181;-91
2022/06/10 06:27:14;;;;;;;10.30;2.70;;;16.20;99.90;;;;;;5032188;28;20261;-85
2022/06/10 06:29:41;;;;;;;4.43;2.88;;;16.20;99.90;;;;;;5036026;28;20613;-90
2022/06/10 06:32:08;;;;;;;5.32;2.85;;;16.30;99.90;;;;;;5034907;28;20179;-92
2022/06/10 06:34:33;;;;;;;8.65;3.05;;;16.30;99.90;;;;;;5036593;28;20174;-90
2022/06/10 06:36:59;;;;;;;5.50;2.22;;;16.40;99.90;;;;;;5036009;28;20175;-90
2022/06/10 06:39:26;;;;;;;7.30;3.03;;;16.50;99.90;;;;;;5036572;28;20336;-90
2022/06/10 06:41:54;;;;;;;9.77;2.80;;;16.50;99.90;;;;;;5036082;28;20280;-87
2022/06/10 06:44:21;;;;;;;4.18;2.53;;;16.70;99.90;;;;;;5035959;28;20171;-89
2022/06/10 06:46:46;;;;;;;7.05;2.60;;;16.70;99.90;;;;;;5033962;28;20174;-91
2022/06/10 06:49:17;;;;;;;8.88;2.50;;;16.90;99.90;;;;;;5015677;28;20195;-91
2022/06/10 06:51:44;;;;;;;5.93;2.50;;;17.00;99.90;;;;;;5015104;28;20167;-92
2022/06/10 06:54:10;;;;;;;15.43;2.50;;;17.10;99.90;;;;;;5015532;28;20175;-90
2022/06/10 06:56:36;;;;;;;7.25;2.30;;;17.30;99.90;;;;;;5015274;28;20672;-92
2022/06/10 06:59:04;;;;;;;6.38;2.20;;;17.40;99.90;;;;;;5015054;28;20230;-90
2022/06/10 07:01:30;;;;;;;5.38;2.60;;;17.60;99.90;;;;;;5031897;28;20653;-90
2022/06/10 07:03:57;;;;;;;12.38;2.20;;;17.70;99.90;;;;;;5031671;28;20193;-90
2022/06/10 07:06:23;;;;;;;7.70;2.20;;;17.80;99.90;;;;;;5033651;28;20202;-90
2022/06/10 07:08:50;;;;;;;7.45;2.40;;;18.00;99.90;;;;;;5044501;28;20197;-89
2022/06/10 07:11:17;;;;;;;5.40;2.13;;;18.10;99.90;;;;;;5053567;28;20174;-87
2022/06/10 07:13:42;;;;;;;4.93;2.20;;;18.20;99.90;;;;;;5043859;28;20192;-87
2022/06/10 07:16:08;;;;;;;9.15;2.67;;;18.30;99.90;;;;;;5033170;28;20179;-87
2022/06/10 07:18:34;;;;;;;7.28;2.20;;;18.50;99.90;;;;;;5047326;28;20231;-89
2022/06/10 07:21:00;;;;;;;4.05;1.77;;;18.60;99.90;;;;;;5036579;28;20301;-88
2022/06/10 07:23:26;;;;;;;9.82;2.28;;;18.80;99.90;;;;;;5054562;28;20167;-92
2022/06/10 07:25:53;;;;;;;4.32;1.80;;;18.90;99.90;;;;;;5053053;28;20220;-90
2022/06/10 07:28:19;;;;;;;9.38;2.40;;;19.00;99.90;;;;;;5052503;28;20237;-92
2022/06/10 07:30:45;;;;;;;6.45;1.83;;;19.30;99.90;;;;;;5054506;28;20174;-90
2022/06/10 07:33:12;;;;;;;4.93;1.85;;;19.30;99.90;;;;;;5043065;28;20216;-90
2022/06/10 07:35:38;;;;;;;4.07;1.90;;;19.50;99.90;;;;;;5033534;28;20546;-88
2022/06/10 07:38:04;;;;;;;7.65;1.98;;;19.50;99.90;;;;;;5034050;28;20185;-86
2022/06/10 07:43:19;;;;;;;6.38;1.65;;;19.80;99.90;;;;;;5034708;28;20292;-80
2022/06/10 07:45:45;;;;;;;7.38;2.50;;;19.80;99.90;;;;;;5033971;28;20641;-90
2022/06/10 07:48:11;;;;;;;4.43;1.63;;;19.80;99.90;;;;;;5032958;28;20174;-85
2022/06/10 07:50:42;;;;;;;6.53;2.20;;;19.90;99.90;;;;;;5032554;28;20181;-83
2022/06/10 07:53:09;;;;;;;7.10;1.90;;;20.10;99.90;;;;;;5034504;28;20174;-87
2022/06/10 07:55:35;;;;;;;7.35;2.03;;;20.30;99.90;;;;;;5032702;28;20198;-87
2022/06/10 07:58:00;;;;;;;8.38;2.00;;;20.30;99.90;;;;;;5032823;28;20273;-87
2022/06/10 08:00:26;;;;;;;6.70;1.80;;;20.50;99.90;;;;;;5033891;28;20209;-88
2022/06/10 08:02:52;;;;;;;6.30;2.15;;;20.60;99.90;;;;;;5038414;28;20530;-90
2022/06/10 08:05:19;;;;;;;8.05;1.90;;;20.70;99.90;;;;;;5053847;28;20166;-87
2022/06/10 08:07:45;;;;;;;5.45;1.60;;;20.80;99.90;;;;;;5033319;28;20209;-89
2022/06/10 08:10:24;;;;;;;8.05;1.45;;;20.90;99.90;;;;;;5033939;28;20201;-89
2022/06/10 08:12:50;;;;;;;5.13;1.42;;;20.90;99.90;;;;;;5032928;28;20227;-87
2022/06/10 08:15:17;;;;;;;9.13;2.00;;;21.10;99.60;;;;;;5033481;28;20166;-85
2022/06/10 08:17:43;;;;;;;4.88;1.50;;;21.10;99.90;;;;;;5033349;28;20213;-89
2022/06/10 08:20:18;;;;;;;5.35;1.50;;;21.20;99.90;;;;;;5033684;28;20289;-87
2022/06/10 08:22:44;;;;;;;6.38;1.80;;;21.20;99.90;;;;;;5032607;28;20260;-89
2022/06/10 08:25:11;;;;;;;5.93;1.40;;;21.30;99.90;;;;;;5032742;28;20197;-87
2022/06/10 08:27:37;;;;;;;6.05;2.03;;;21.50;99.60;;;;;;5032572;28;20241;-89
2022/06/10 08:30:05;;;;;;;4.80;1.50;;;21.60;99.40;;;;;;5033608;28;20633;-88
2022/06/10 08:32:30;;;;;;;5.40;1.55;;;21.50;99.10;;;;;;5032640;28;20210;-89
2022/06/10 08:34:56;;;;;;;5.55;1.70;;;21.50;98.50;;;;;;5033387;28;20240;-89
2022/06/10 08:37:22;;;;;;;6.38;1.75;;;21.60;99.00;;;;;;5034023;28;20178;-88
2022/06/10 08:39:47;;;;;;;6.90;1.92;;;21.60;98.40;;;;;;5052555;28;20753;-92
2022/06/10 08:42:26;;;;;;;5.35;1.75;;;21.90;99.00;;;;;;5054010;28;20548;-89
2022/06/10 08:45:01;;;;;;;8.93;1.60;;;21.80;96.50;;;;;;5052722;28;20181;-87
2022/06/10 08:47:51;;;;;;;5.35;1.65;;;21.80;95.70;;;;;;5039092;28;20235;-91
2022/06/10 08:50:31;;;;;;;5.15;1.52;;;21.80;96.70;;;;;;5034496;28;20175;-90
2022/06/10 08:53:17;;;;;;;6.15;1.67;;;22.00;96.10;;;;;;5032831;28;20170;-94
2022/06/10 08:56:09;;;;;;;6.30;1.50;;;22.10;95.40;;;;;;5033167;28;20194;-85
2022/06/10 08:59:20;;;;;;;4.32;1.20;;;22.20;95.00;;;;;;5033819;28;20201;-87
2022/06/10 09:01:55;;;;;;;6.65;2.20;;;22.40;96.20;;;;;;5017860;28;20194;-89
2022/06/10 09:04:52;;;;;;;6.80;1.70;;;22.60;96.20;;;;;;5020629;28;20277;-91
2022/06/10 09:07:58;;;;;;;8.02;2.17;;;22.90;96.00;;;;;;5022704;28;20202;-87
2022/06/10 09:10:36;;;;;;;4.25;1.50;;;22.90;96.20;;;;;;5017261;28;20160;-90
2022/06/10 09:13:16;;;;;;;9.25;2.05;;;22.90;94.30;;;;;;5017487;28;20163;-90
2022/06/10 09:15:49;;;;;;;4.85;1.55;;;23.10;94.30;;;;;;5017225;28;20164;-93
2022/06/10 09:18:26;;;;;;;6.05;1.65;;;23.10;92.80;;;;;;5027120;28;20201;-90
2022/06/10 09:21:11;;;;;;;4.40;1.63;;;23.10;94.10;;;;;;5036751;28;20202;-91
2022/06/10 09:23:45;;;;;;;8.20;1.90;;;23.20;95.20;;;;;;5037114;28;20242;-90
2022/06/10 09:26:31;;;;;;;5.68;1.60;;;23.30;93.10;;;;;;5036182;28;20544;-90
2022/06/10 09:28:57;;;;;;;5.90;1.85;;;23.00;94.50;;;;;;5036484;28;20679;-91
2022/06/10 09:32:07;;;;;;;7.88;1.67;;;22.60;94.00;;;;;;5036331;28;20292;-89
2022/06/10 09:35:10;;;;;;;8.13;1.77;;;22.70;94.70;;;;;;5017939;28;20210;-88
2022/06/10 09:38:02;;;;;;;8.02;2.08;;;22.60;93.30;;;;;;5035577;28;20182;-85
2022/06/10 09:40:42;;;;;;;6.07;1.40;;;22.70;95.20;;;;;;5036510;28;20206;-91
2022/06/10 09:43:29;;;;;;;8.77;2.15;;;22.70;93.50;;;;;;5030839;28;20174;-92
2022/06/10 09:46:03;;;;;;;8.68;1.90;;;22.60;94.30;;;;;;5022718;28;20193;-87
2022/06/10 09:48:38;;;;;;;7.95;1.98;;;22.40;94.80;;;;;;5041764;28;20512;-92
2022/06/10 09:51:18;;;;;;;6.47;1.65;;;22.60;94.90;;;;;;5056142;28;20165;-90
2022/06/10 09:53:53;;;;;;;6.85;1.80;;;22.70;94.60;;;;;;5055725;28;20178;-90
2022/06/10 09:56:44;;;;;;;4.47;1.58;;;22.80;93.40;;;;;;5015108;28;20170;-88
2022/06/10 09:59:40;;;;;;;4.43;1.70;;;22.80;94.50;;;;;;5016568;28;20178;-90
2022/06/10 10:02:20;;;;;;;45.72;4.90;;;23.00;93.80;;;;;;5033070;28;20208;-91
2022/06/10 10:05:01;;;;;;;9.18;2.28;;;23.10;93.50;;;;;;5034934;28;20175;-90
2022/06/10 10:07:26;;;;;;;12.27;2.28;;;22.80;93.50;;;;;;5035357;28;20166;-86
2022/06/10 10:09:58;;;;;;;6.97;2.05;;;22.60;93.40;;;;;;5036058;28;20748;-89
2022/06/10 10:12:39;;;;;;;5.03;1.90;;;22.70;94.60;;;;;;5033616;28;20189;-89
2022/06/10 10:15:24;;;;;;;8.27;1.88;;;22.80;94.90;;;;;;5014903;28;20187;-85
2022/06/10 10:18:36;;;;;;;7.68;1.80;;;23.10;92.80;;;;;;5031066;28;20174;-90
2022/06/10 10:21:13;;;;;;;9.85;1.98;;;22.90;92.90;;;;;;5020195;28;20230;-86
2022/06/10 10:23:50;;;;;;;4.95;1.75;;;22.90;93.90;;;;;;5049124;28;20170;-88
2022/06/10 10:26:27;;;;;;;6.00;1.85;;;23.20;94.30;;;;;;5031329;28;20202;-85
2022/06/10 10:29:06;;;;;;;6.15;1.77;;;23.60;93.10;;;;;;5029920;28;20254;-87
2022/06/10 10:31:38;;;;;;;12.52;2.10;;;24.00;93.00;;;;;;5013433;28;20178;-90
2022/06/10 10:34:05;;;;;;;8.43;2.03;;;24.20;92.50;;;;;;5052605;28;20292;-88
2022/06/10 10:36:46;;;;;;;18.52;2.42;;;24.00;91.20;;;;;;5046305;28;20213;-88
2022/06/10 10:39:16;;;;;;;6.78;1.58;;;24.00;92.20;;;;;;5026626;28;20635;-87
2022/06/10 10:41:47;;;;;;;6.20;2.08;;;23.70;92.40;;;;;;5045899;28;20641;-88
2022/06/10 10:44:45;;;;;;;5.65;1.63;;;23.50;91.60;;;;;;5024947;28;20186;-84
2022/06/10 10:47:10;;;;;;;4.03;1.33;;;23.10;91.40;;;;;;5028862;28;20202;-87
2022/06/10 10:49:50;;;;;;;5.70;1.33;;;22.70;92.60;;;;;;5026882;28;20175;-88
2022/06/10 10:52:38;;;;;;;5.45;1.55;;;22.50;93.10;;;;;;5029920;28;20644;-85
2022/06/10 10:55:13;;;;;;;5.20;1.67;;;22.50;93.10;;;;;;5013866;28;20236;-86
2022/06/10 10:57:55;;;;;;;5.43;1.40;;;23.10;94.60;;;;;;5030126;28;20269;-87
2022/06/10 11:00:29;;;;;;;5.38;1.30;;;23.70;93.00;;;;;;5025530;28;20682;-84
2022/06/10 11:02:58;;;;;;;4.47;1.40;;;24.20;91.90;;;;;;5040821;28;20182;-85
2022/06/10 11:05:37;;;;;;;4.03;1.25;;;24.30;91.60;;;;;;5041401;28;20189;-88
2022/06/10 11:08:17;;;;;;;4.95;1.52;;;24.10;89.60;;;;;;5040061;28;20182;-85
2022/06/10 11:10:51;;;;;;;4.15;1.80;;;23.30;91.20;;;;;;5032663;28;20173;-86
2022/06/10 11:13:25;;;;;;;4.70;1.65;;;23.00;92.20;;;;;;5048004;28;20673;-85
2022/06/10 11:15:52;;;;;;;3.70;1.13;;;22.70;92.70;;;;;;5033788;28;20201;-86
2022/06/10 11:18:19;;;;;;;5.68;1.48;;;22.80;91.40;;;;;;5033504;28;20645;-86
2022/06/10 11:20:45;;;;;;;4.55;1.20;;;22.90;92.20;;;;;;5031290;28;20711;-84
2022/06/10 11:23:26;;;;;;;5.07;1.45;;;23.20;91.90;;;;;;5032937;28;20167;-86
2022/06/10 11:26:05;;;;;;;3.35;1.30;;;23.20;92.50;;;;;;5032069;28;20178;-85
2022/06/10 11:28:40;;;;;;;4.32;1.27;;;23.50;92.80;;;;;;5037628;28;20308;-86
2022/06/10 11:31:30;;;;;;;5.05;1.65;;;24.00;91.40;;;;;;5052267;28;20161;-84
2022/06/10 11:33:58;;;;;;;4.15;1.38;;;24.30;90.80;;;;;;5022197;28;20235;-83
2022/06/10 11:36:28;;;;;;;3.83;1.33;;;24.40;90.20;;;;;;5026607;28;20603;-83
2022/06/10 11:39:17;;;;;;;2.92;1.20;;;24.30;90.10;;;;;;5022960;28;20321;-85
2022/06/10 11:42:07;;;;;;;6.00;1.52;;;24.10;90.30;;;;;;5024615;28;20198;-85
2022/06/10 11:44:40;;;;;;;5.55;1.45;;;24.20;91.20;;;;;;5016276;28;20614;-84
2022/06/10 11:47:27;;;;;;;3.53;1.33;;;24.40;90.60;;;;;;5031418;28;20632;-85
2022/06/10 11:50:16;;;;;;;3.40;1.33;;;24.50;90.10;;;;;;5033143;28;20174;-85
2022/06/10 11:52:57;;;;;;;4.40;1.10;;;24.30;90.10;;;;;;5032222;28;20466;-83
2022/06/10 11:55:27;;;;;;;4.82;1.40;;;24.10;91.20;;;;;;5033421;28;20177;-82
2022/06/10 12:00:57;;;;;;;3.38;0.98;;;24.20;91.40;;;;;;5032792;28;20265;-84
2022/06/10 12:03:29;;;;;;;4.05;1.50;;;24.00;89.70;;;;;;5045453;28;20265;-84
2022/06/10 12:06:00;;;;;;;5.45;1.52;;;23.90;90.90;;;;;;5053295;28;20182;-84
2022/06/10 12:08:54;;;;;;;7.55;1.77;;;23.80;90.70;;;;;;5052165;28;20178;-85
2022/06/10 12:11:40;;;;;;;4.75;1.10;;;23.70;91.00;;;;;;5048803;28;20182;-83
2022/06/10 12:14:18;;;;;;;5.53;1.30;;;23.40;90.70;;;;;;5033403;28;20639;-84
2022/06/10 12:16:48;;;;;;;3.92;1.35;;;23.10;91.20;;;;;;5032236;28;20181;-83
2022/06/10 12:19:24;;;;;;;2.10;1.00;;;23.00;91.20;;;;;;5033944;28;20174;-84
2022/06/10 12:21:51;;;;;;;4.78;1.23;;;22.90;91.50;;;;;;5031150;28;20624;-85
2022/06/10 12:24:20;;;;;;;2.55;1.10;;;23.00;91.70;;;;;;5031988;28;20185;-84
2022/06/10 12:26:49;;;;;;;2.80;1.35;;;23.00;92.20;;;;;;5031787;28;20182;-84
2022/06/10 12:29:34;;;;;;;3.72;1.33;;;23.20;93.10;;;;;;5033799;28;20170;-86
2022/06/10 12:32:12;;;;;;;3.63;1.20;;;23.20;92.40;;;;;;5038636;28;20185;-85
2022/06/10 12:34:47;;;;;;;6.93;1.55;;;23.20;91.80;;;;;;5055098;28;20169;-85
2022/06/10 12:37:38;;;;;;;4.65;1.48;;;23.30;92.70;;;;;;5055864;28;20172;-82
2022/06/10 12:40:28;;;;;;;6.82;1.20;;;23.30;91.20;;;;;;5057448;28;20270;-84
2022/06/10 12:43:02;;;;;;;1.85;0.90;;;23.40;92.70;;;;;;5041207;28;20202;-84
2022/06/10 12:45:33;;;;;;;2.65;1.25;;;23.70;91.60;;;;;;5017396;28;20167;-83
2022/06/10 12:48:02;;;;;;;2.65;1.15;;;23.80;92.30;;;;;;5015535;28;20221;-82
2022/06/10 12:50:55;;;;;;;2.95;1.25;;;23.90;91.70;;;;;;5015668;28;20221;-82
2022/06/10 12:53:42;;;;;;;3.10;1.38;;;24.00;91.70;;;;;;5023162;28;20191;-83
2022/06/10 12:56:19;;;;;;;4.40;1.67;;;24.00;92.00;;;;;;5027499;28;20231;-83
2022/06/10 12:59:09;;;;;;;4.05;1.20;;;24.10;92.50;;;;;;5029406;28;20223;-85
2022/06/10 13:01:35;;;;;;;5.97;1.48;;;24.30;92.60;;;;;;5026172;28;20257;-82
2022/06/10 13:04:21;;;;;;;4.20;1.40;;;24.40;92.40;;;;;;5036212;28;20179;-84
2022/06/10 13:07:00;;;;;;;3.90;1.33;;;24.50;92.00;;;;;;5033199;28;20183;-85
2022/06/10 13:09:29;;;;;;;5.53;1.08;;;24.70;92.60;;;;;;5034582;28;20264;-84
2022/06/10 13:12:07;;;;;;;2.78;1.20;;;24.90;91.70;;;;;;5036441;28;20186;-83
2022/06/10 13:14:38;;;;;;;4.32;1.40;;;24.90;91.20;;;;;;5035441;28;20184;-84
2022/06/10 13:17:13;;;;;;;4.53;1.20;;;25.00;90.90;;;;;;5035277;28;20567;-84
2022/06/10 13:19:53;;;;;;;5.57;1.30;;;25.10;91.50;;;;;;5034724;28;20236;-83
2022/06/10 13:22:19;;;;;;;3.10;1.20;;;25.10;90.90;;;;;;5028627;28;20728;-82
2022/06/10 13:24:53;;;;;;;5.50;1.65;;;25.10;91.10;;;;;;5032876;28;20182;-84
2022/06/10 13:27:32;;;;;;;5.53;1.40;;;25.00;90.60;;;;;;5016441;28;20219;-84
2022/06/10 13:30:13;;;;;;;3.90;1.60;;;24.80;90.90;;;;;;5024821;28;20190;-84
2022/06/10 13:32:45;;;;;;;4.50;1.10;;;24.70;90.80;;;;;;5035003;28;20316;-83
2022/06/10 13:35:20;;;;;;;5.55;1.33;;;24.70;91.60;;;;;;5033760;28;20189;-82